createdAt,value
2019-05-11T00:01:50.752Z,46.47
2019-05-11T00:04:18.864Z,46.43
2019-05-11T00:06:46.852Z,46.48
2019-05-11T00:09:14.873Z,46.52
2019-05-11T00:11:42.886Z,46.61
2019-05-11T00:14:10.969Z,46.59
2019-05-11T00:16:38.979Z,46.56
2019-05-11T00:19:07.059Z,46.67
2019-05-11T00:21:35.184Z,46.67
2019-05-11T00:24:03.256Z,46.66
2019-05-11T00:26:31.337Z,46.70
2019-05-11T00:28:59.375Z,46.71
2019-05-11T00:31:27.367Z,46.62
2019-05-11T00:33:55.461Z,46.57
2019-05-11T00:36:23.523Z,46.66
2019-05-11T00:38:51.521Z,46.58
2019-05-11T00:41:19.584Z,46.61
2019-05-11T00:43:47.602Z,46.58
2019-05-11T00:46:15.609Z,46.60
2019-05-11T00:48:43.640Z,46.59
2019-05-11T00:51:11.685Z,46.50
2019-05-11T00:53:39.716Z,46.61
2019-05-11T00:56:07.728Z,46.67
2019-05-11T00:58:35.772Z,46.65
2019-05-11T01:01:03.845Z,46.62
2019-05-11T01:03:31.885Z,46.65
2019-05-11T01:05:59.905Z,46.66
2019-05-11T01:08:27.945Z,46.68
2019-05-11T01:10:55.947Z,46.61
2019-05-11T01:13:24.040Z,46.65
2019-05-11T01:15:52.072Z,46.76
2019-05-11T01:18:20.116Z,46.67
2019-05-11T01:20:48.164Z,46.74
2019-05-11T01:23:16.188Z,46.78
2019-05-11T01:25:44.198Z,46.75
2019-05-11T01:28:12.247Z,46.66
2019-05-11T01:30:40.297Z,46.69
2019-05-11T01:33:08.394Z,46.73
2019-05-11T01:35:36.433Z,46.75
2019-05-11T01:38:04.489Z,46.71
2019-05-11T01:40:32.502Z,46.81
2019-05-11T01:43:00.503Z,46.83
2019-05-11T01:45:28.551Z,46.85
2019-05-11T01:47:56.620Z,46.78
2019-05-11T01:50:24.669Z,46.83
2019-05-11T01:52:52.687Z,46.68
2019-05-11T01:55:20.679Z,46.80
2019-05-11T01:57:48.726Z,46.75
2019-05-11T02:00:16.801Z,46.78
2019-05-11T02:02:44.842Z,46.77
2019-05-11T02:05:31.969Z,46.92
2019-05-11T02:07:59.996Z,46.86
2019-05-11T02:10:28.090Z,46.89
2019-05-11T02:12:56.205Z,46.95
2019-05-11T02:15:24.200Z,46.92
2019-05-11T02:17:52.201Z,46.96
2019-05-11T02:20:20.235Z,46.98
2019-05-11T02:22:48.310Z,47.02
2019-05-11T02:25:16.351Z,47.00
2019-05-11T02:27:44.349Z,47.00
2019-05-11T02:30:12.419Z,47.09
2019-05-11T02:32:40.515Z,47.01
2019-05-11T02:35:08.519Z,47.12
2019-05-11T02:37:36.518Z,47.17
2019-05-11T02:40:04.639Z,47.21
2019-05-11T02:42:32.706Z,47.22
2019-05-11T02:45:00.752Z,47.21
2019-05-11T02:47:28.780Z,47.26
2019-05-11T02:49:56.768Z,47.21
2019-05-11T02:52:24.784Z,47.31
2019-05-11T02:54:52.810Z,47.27
2019-05-11T02:57:20.822Z,47.25
2019-05-11T02:59:48.885Z,47.26
2019-05-11T03:02:16.862Z,47.30
2019-05-11T03:04:44.887Z,47.30
2019-05-11T03:07:12.960Z,47.37
2019-05-11T03:09:40.967Z,47.41
2019-05-11T03:12:08.991Z,47.06
2019-05-11T03:14:37.056Z,47.35
2019-05-11T03:17:18.225Z,47.24
2019-05-11T03:19:46.279Z,47.38
2019-05-11T03:22:14.333Z,47.44
2019-05-11T03:24:42.344Z,47.40
2019-05-11T03:27:10.384Z,47.33
2019-05-11T03:29:38.383Z,47.34
2019-05-11T03:32:06.423Z,47.29
2019-05-11T03:34:34.475Z,47.34
2019-05-11T03:37:02.506Z,47.24
2019-05-11T03:39:30.533Z,47.41
2019-05-11T03:42:13.383Z,47.31
2019-05-11T03:44:28.308Z,47.38
2019-05-11T03:46:56.330Z,47.41
2019-05-11T03:49:24.365Z,47.42
2019-05-11T03:51:52.408Z,47.52
2019-05-11T03:54:20.420Z,47.49
2019-05-11T03:56:48.499Z,47.41
2019-05-11T03:59:16.508Z,47.51
2019-05-11T04:01:44.545Z,47.51
2019-05-11T04:04:16.227Z,47.47
2019-05-11T04:06:42.304Z,47.45
2019-05-11T04:09:10.325Z,47.42
2019-05-11T04:11:38.451Z,47.36
2019-05-11T04:14:06.488Z,47.31
2019-05-11T04:16:34.527Z,47.41
2019-05-11T04:19:02.567Z,47.29
2019-05-11T04:21:30.584Z,47.30
2019-05-11T04:23:58.767Z,47.31
2019-05-11T04:26:26.760Z,47.23
2019-05-11T04:28:54.778Z,47.32
2019-05-11T04:31:22.822Z,47.24
2019-05-11T04:33:50.816Z,47.28
2019-05-11T04:36:18.985Z,47.16
2019-05-11T04:38:46.980Z,46.88
2019-05-11T04:41:15.008Z,47.12
2019-05-11T04:43:43.064Z,47.15
2019-05-11T04:46:11.056Z,47.25
2019-05-11T04:48:39.048Z,47.07
2019-05-11T04:51:07.082Z,47.17
2019-05-11T04:53:35.110Z,47.23
2019-05-11T04:56:03.114Z,47.03
2019-05-11T04:58:31.154Z,47.16
2019-05-11T05:00:59.178Z,46.97
2019-05-11T05:03:39.743Z,47.11
2019-05-11T05:05:56.919Z,46.98
2019-05-11T05:08:26.479Z,46.90
2019-05-11T05:11:13.415Z,46.84
2019-05-11T05:13:41.422Z,46.93
2019-05-11T05:16:09.425Z,47.01
2019-05-11T05:18:37.508Z,46.92
2019-05-11T05:21:05.587Z,46.96
2019-05-11T05:23:33.588Z,47.04
2019-05-11T05:26:01.603Z,46.95
2019-05-11T05:28:29.620Z,47.07
2019-05-11T05:30:57.625Z,47.08
2019-05-11T05:33:25.709Z,47.00
2019-05-11T05:35:53.696Z,46.92
2019-05-11T05:38:21.725Z,46.85
2019-05-11T05:40:49.932Z,46.96
2019-05-11T05:43:26.344Z,46.76
2019-05-11T05:45:48.005Z,46.92
2019-05-11T05:48:16.050Z,46.80
2019-05-11T05:50:44.088Z,46.88
2019-05-11T05:53:12.129Z,46.95
2019-05-11T05:55:40.157Z,46.73
2019-05-11T05:58:08.166Z,46.65
2019-05-11T06:00:36.294Z,46.69
2019-05-11T06:03:04.307Z,46.79
2019-05-11T06:05:32.356Z,46.87
2019-05-11T06:08:00.500Z,46.74
2019-05-11T06:10:28.552Z,46.79
2019-05-11T06:12:56.530Z,46.77
2019-05-11T06:15:24.572Z,46.74
2019-05-11T06:17:52.615Z,46.69
2019-05-11T06:20:20.647Z,46.70
2019-05-11T06:22:48.687Z,46.81
2019-05-11T06:25:16.764Z,46.87
2019-05-11T06:27:44.744Z,46.83
2019-05-11T06:30:12.754Z,46.83
2019-05-11T06:32:40.779Z,46.87
2019-05-11T06:35:08.792Z,46.69
2019-05-11T06:37:36.793Z,46.63
2019-05-11T06:40:04.861Z,46.69
2019-05-11T06:42:32.947Z,46.38
2019-05-11T06:45:00.983Z,46.22
2019-05-11T06:47:28.979Z,46.22
2019-05-11T06:49:57.032Z,46.14
2019-05-11T06:52:25.043Z,46.67
2019-05-11T06:54:53.163Z,47.62
2019-05-11T06:57:21.186Z,48.04
2019-05-11T06:59:49.311Z,48.07
2019-05-11T07:02:17.354Z,48.02
2019-05-11T07:04:45.439Z,48.21
2019-05-11T07:07:13.668Z,48.17
2019-05-11T07:09:41.714Z,48.06
2019-05-11T07:12:09.793Z,48.17
2019-05-11T07:14:37.898Z,48.25
2019-05-11T07:17:05.893Z,48.13
2019-05-11T07:19:33.908Z,48.03
2019-05-11T07:22:01.929Z,48.13
2019-05-11T07:24:29.946Z,47.97
2019-05-11T07:26:58.281Z,47.93
2019-05-11T07:29:26.327Z,47.79
2019-05-11T07:31:54.995Z,47.65
2019-05-11T07:34:23.673Z,47.59
2019-05-11T07:36:51.799Z,48.16
2019-05-11T07:39:19.863Z,48.14
2019-05-11T07:41:48.052Z,47.82
2019-05-11T07:44:16.098Z,47.51
2019-05-11T07:46:44.559Z,47.65
2019-05-11T07:49:12.650Z,47.78
2019-05-11T07:51:40.758Z,47.75
2019-05-11T07:54:08.987Z,47.46
2019-05-11T07:56:38.966Z,47.42
2019-05-11T07:59:07.960Z,47.30
2019-05-11T08:01:38.422Z,47.41
2019-05-11T08:04:07.864Z,47.52
2019-05-11T08:06:35.727Z,47.25
2019-05-11T08:09:04.564Z,47.22
2019-05-11T08:11:51.355Z,46.93
2019-05-11T08:14:19.351Z,46.80
2019-05-11T08:16:48.152Z,46.94
2019-05-11T08:19:18.423Z,46.71
2019-05-11T08:21:48.021Z,46.93
2019-05-11T08:24:17.935Z,47.09
2019-05-11T08:26:47.853Z,47.30
2019-05-11T08:29:15.294Z,47.50
2019-05-11T08:31:43.327Z,47.45
2019-05-11T08:34:11.381Z,47.41
2019-05-11T08:36:39.493Z,47.24
2019-05-11T08:39:08.034Z,47.38
2019-05-11T08:41:38.208Z,47.48
2019-05-11T08:44:05.840Z,47.45
2019-05-11T08:46:34.174Z,47.22
2019-05-11T08:49:02.375Z,46.93
2019-05-11T08:51:30.384Z,46.81
2019-05-11T08:53:58.573Z,46.71
2019-05-11T08:56:28.884Z,46.52
2019-05-11T08:58:58.801Z,46.21
2019-05-11T09:01:28.490Z,46.14
2019-05-11T09:03:58.171Z,46.08
2019-05-11T09:06:28.236Z,46.03
2019-05-11T09:08:58.149Z,45.98
2019-05-11T09:11:25.453Z,46.36
2019-05-11T09:13:53.493Z,46.85
2019-05-11T09:16:21.518Z,46.57
2019-05-11T09:18:49.916Z,46.50
2019-05-11T09:21:19.128Z,46.92
2019-05-11T09:23:48.532Z,47.17
2019-05-11T09:26:18.168Z,47.32
2019-05-11T09:28:47.609Z,47.67
2019-05-11T09:31:15.810Z,47.71
2019-05-11T09:33:43.864Z,48.19
2019-05-11T09:36:11.955Z,48.02
2019-05-11T09:38:40.084Z,48.17
2019-05-11T09:41:11.887Z,48.25
2019-05-11T09:43:37.872Z,47.79
2019-05-11T09:46:08.071Z,48.42
2019-05-11T09:48:37.771Z,48.22
2019-05-11T09:51:07.671Z,47.86
2019-05-11T09:53:35.317Z,47.75
2019-05-11T09:56:03.313Z,48.05
2019-05-11T09:58:31.409Z,47.83
2019-05-11T10:00:59.458Z,47.99
2019-05-11T10:03:28.181Z,47.68
2019-05-11T10:05:57.967Z,47.67
2019-05-11T10:08:28.536Z,47.76
2019-05-11T10:10:57.911Z,47.55
2019-05-11T10:13:27.824Z,47.56
2019-05-11T10:16:04.500Z,47.39
2019-05-11T10:18:27.983Z,47.38
2019-05-11T10:20:55.385Z,47.30
2019-05-11T10:23:23.406Z,47.08
2019-05-11T10:25:51.449Z,47.22
2019-05-11T10:28:19.684Z,46.79
2019-05-11T10:30:48.756Z,46.82
2019-05-11T10:33:18.813Z,46.32
2019-05-11T10:35:48.334Z,45.79
2019-05-11T10:38:17.961Z,45.73
2019-05-11T10:40:48.049Z,45.34
2019-05-11T10:43:18.190Z,45.37
2019-05-11T10:45:48.405Z,45.36
2019-05-11T10:48:17.709Z,45.61
2019-05-11T10:50:48.247Z,44.91
2019-05-11T10:53:15.731Z,44.87
2019-05-11T10:55:43.727Z,44.87
2019-05-11T10:58:11.969Z,44.66
2019-05-11T11:00:39.983Z,44.42
2019-05-11T11:03:08.570Z,44.49
2019-05-11T11:05:38.434Z,44.23
2019-05-11T11:08:08.289Z,44.08
2019-05-11T11:10:37.845Z,44.01
2019-05-11T11:13:08.300Z,43.82
2019-05-11T11:15:38.062Z,43.57
2019-05-11T11:18:08.298Z,43.78
2019-05-11T11:20:38.231Z,43.73
2019-05-11T11:23:05.567Z,43.65
2019-05-11T11:25:33.645Z,43.64
2019-05-11T11:28:01.638Z,43.38
2019-05-11T11:30:29.654Z,43.48
2019-05-11T11:32:58.812Z,43.14
2019-05-11T11:35:27.920Z,43.11
2019-05-11T11:37:58.312Z,43.01
2019-05-11T11:40:28.229Z,43.10
2019-05-11T11:42:57.996Z,42.79
2019-05-11T11:45:28.590Z,42.79
2019-05-11T11:47:58.041Z,42.84
2019-05-11T11:50:28.312Z,42.75
2019-05-11T11:52:57.837Z,42.60
2019-05-11T11:55:26.254Z,42.47
2019-05-11T11:57:54.355Z,42.61
2019-05-11T12:00:23.361Z,42.54
2019-05-11T12:02:51.714Z,42.43
2019-05-11T12:05:20.031Z,42.56
2019-05-11T12:07:49.030Z,42.42
2019-05-11T12:10:18.380Z,42.22
2019-05-11T12:12:47.667Z,42.33
2019-05-11T12:15:17.809Z,42.34
2019-05-11T12:17:48.307Z,42.17
2019-05-11T12:20:18.095Z,41.99
2019-05-11T12:22:47.604Z,41.95
2019-05-11T12:25:18.306Z,42.10
2019-05-11T12:27:45.946Z,42.04
2019-05-11T12:30:14.481Z,42.28
2019-05-11T12:32:50.736Z,42.12
2019-05-11T12:35:18.926Z,42.20
2019-05-11T12:37:48.491Z,42.05
2019-05-11T12:40:18.072Z,42.59
2019-05-11T12:42:48.777Z,42.58
2019-05-11T12:45:18.211Z,42.33
2019-05-11T12:47:47.937Z,42.49
2019-05-11T12:50:18.415Z,42.36
2019-05-11T12:52:47.666Z,42.40
2019-05-11T12:55:17.885Z,42.59
2019-05-11T12:57:47.815Z,42.32
2019-05-11T13:00:17.854Z,42.35
2019-05-11T13:02:48.168Z,42.30
2019-05-11T13:05:17.824Z,42.18
2019-05-11T13:07:48.084Z,42.24
2019-05-11T13:10:17.725Z,42.14
2019-05-11T13:12:46.156Z,42.21
2019-05-11T13:15:14.275Z,42.08
2019-05-11T13:17:42.429Z,41.95
2019-05-11T13:20:12.845Z,42.00
2019-05-11T13:22:40.490Z,41.89
2019-05-11T13:25:09.044Z,41.74
2019-05-11T13:27:38.760Z,41.95
2019-05-11T13:30:08.023Z,41.72
2019-05-11T13:32:38.579Z,41.78
2019-05-11T13:35:06.207Z,41.54
2019-05-11T13:37:34.341Z,41.80
2019-05-11T13:40:02.836Z,41.77
2019-05-11T13:42:31.031Z,42.40
2019-05-11T13:44:59.182Z,42.16
2019-05-11T13:47:28.258Z,42.08
2019-05-11T13:49:58.400Z,42.54
2019-05-11T13:52:28.521Z,42.34
2019-05-11T13:54:58.398Z,42.62
2019-05-11T13:57:28.847Z,42.28
2019-05-11T13:59:58.082Z,42.00
2019-05-11T14:02:28.426Z,42.55
2019-05-11T14:04:58.343Z,42.53
2019-05-11T14:07:27.663Z,41.89
2019-05-11T14:09:55.788Z,42.49
2019-05-11T14:12:24.204Z,41.86
2019-05-11T14:14:52.292Z,41.64
2019-05-11T14:17:20.449Z,41.64
2019-05-11T14:19:50.741Z,42.14
2019-05-11T14:22:19.470Z,42.20
2019-05-11T14:24:48.319Z,42.17
2019-05-11T14:27:17.807Z,42.15
2019-05-11T14:29:48.959Z,42.05
2019-05-11T14:32:17.320Z,41.77
2019-05-11T14:34:45.849Z,41.87
2019-05-11T14:37:17.983Z,41.42
2019-05-11T14:39:43.749Z,41.37
2019-05-11T14:42:11.846Z,41.15
2019-05-11T14:44:39.901Z,42.83
2019-05-11T14:47:08.530Z,43.40
2019-05-11T14:49:37.878Z,43.46
2019-05-11T14:52:08.185Z,44.26
2019-05-11T14:54:38.089Z,44.25
2019-05-11T14:57:07.856Z,42.17
2019-05-11T14:59:37.605Z,42.08
2019-05-11T15:02:24.144Z,42.17
2019-05-11T15:04:52.223Z,42.15
2019-05-11T15:07:20.320Z,43.90
2019-05-11T15:09:48.503Z,46.84
2019-05-11T15:12:18.103Z,45.68
2019-05-11T15:14:48.585Z,45.04
2019-05-11T15:17:18.461Z,44.55
2019-05-11T15:19:48.811Z,44.44
2019-05-11T15:22:18.123Z,44.48
2019-05-11T15:24:48.397Z,43.78
2019-05-11T15:27:18.406Z,43.68
2019-05-11T15:29:47.742Z,43.67
2019-05-11T15:32:17.925Z,43.39
2019-05-11T15:34:48.792Z,42.85
2019-05-11T15:37:17.793Z,42.77
2019-05-11T15:39:48.408Z,42.44
2019-05-11T15:42:19.667Z,42.83
2019-05-11T15:44:48.293Z,42.20
2019-05-11T15:47:17.469Z,41.98
2019-05-11T15:49:45.655Z,42.22
2019-05-11T15:52:13.783Z,42.10
2019-05-11T15:54:42.228Z,42.04
2019-05-11T15:57:10.330Z,42.01
2019-05-11T15:59:38.948Z,41.65
2019-05-11T16:02:08.579Z,41.58
2019-05-11T16:04:38.150Z,41.43
2019-05-11T16:07:08.313Z,41.57
2019-05-11T16:09:38.007Z,42.02
2019-05-11T16:12:06.441Z,41.92
2019-05-11T16:14:41.334Z,42.18
2019-05-11T16:17:09.509Z,42.22
2019-05-11T16:19:38.083Z,41.88
2019-05-11T16:22:09.851Z,41.79
2019-05-11T16:24:39.862Z,43.66
2019-05-11T16:27:08.771Z,43.40
2019-05-11T16:29:38.408Z,43.35
2019-05-11T16:32:08.420Z,43.29
2019-05-11T16:34:38.216Z,43.37
2019-05-11T16:37:09.940Z,43.97
2019-05-11T16:39:38.500Z,43.65
2019-05-11T16:42:08.489Z,44.29
2019-05-11T16:44:39.395Z,44.63
2019-05-11T16:47:08.366Z,43.35
2019-05-11T16:49:40.561Z,43.89
2019-05-11T16:52:10.264Z,43.81
2019-05-11T16:54:38.740Z,43.18
2019-05-11T16:57:08.661Z,43.41
2019-05-11T16:59:39.569Z,43.44
2019-05-11T17:02:08.755Z,43.66
2019-05-11T17:04:43.399Z,43.49
2019-05-11T17:07:12.671Z,43.35
2019-05-11T17:09:41.855Z,43.22
2019-05-11T17:12:09.938Z,43.29
2019-05-11T17:14:55.060Z,43.28
2019-05-11T17:17:24.385Z,43.06
2019-05-11T17:19:54.164Z,43.12
2019-05-11T17:22:22.647Z,43.19
2019-05-11T17:24:50.734Z,43.33
2019-05-11T17:27:20.148Z,43.55
2019-05-11T17:29:48.828Z,43.62
2019-05-11T17:32:17.782Z,43.58
2019-05-11T17:34:47.815Z,43.33
2019-05-11T17:37:18.233Z,43.40
2019-05-11T17:39:47.517Z,43.16
2019-05-11T17:42:18.023Z,43.23
2019-05-11T17:44:48.424Z,42.67
2019-05-11T17:47:17.951Z,42.90
2019-05-11T17:50:04.939Z,43.22
2019-05-11T17:52:33.286Z,43.32
2019-05-11T17:55:01.347Z,42.72
2019-05-11T17:57:29.487Z,43.03
2019-05-11T17:59:58.004Z,42.88
2019-05-11T18:02:28.643Z,43.23
2019-05-11T18:04:58.441Z,43.28
2019-05-11T18:07:30.266Z,43.35
2019-05-11T18:09:55.679Z,43.41
2019-05-11T18:12:23.780Z,43.31
2019-05-11T18:14:51.816Z,42.77
2019-05-11T18:17:19.915Z,42.86
2019-05-11T18:19:48.128Z,42.52
2019-05-11T18:22:17.849Z,42.48
2019-05-11T18:24:46.267Z,41.13
2019-05-11T18:27:14.545Z,41.98
2019-05-11T18:29:44.834Z,42.52
2019-05-11T18:32:13.034Z,41.37
2019-05-11T18:34:41.095Z,40.91
2019-05-11T18:37:09.223Z,42.65
2019-05-11T18:39:37.906Z,44.48
2019-05-11T18:42:08.211Z,44.12
2019-05-11T18:44:37.997Z,45.05
2019-05-11T18:47:08.673Z,44.85
2019-05-11T18:49:38.137Z,44.38
2019-05-11T18:52:08.052Z,44.51
2019-05-11T18:54:35.392Z,44.66
2019-05-11T18:57:03.646Z,44.52
2019-05-11T18:59:31.688Z,44.88
2019-05-11T19:01:59.720Z,45.13
2019-05-11T19:04:28.742Z,44.86
2019-05-11T19:06:56.883Z,45.19
2019-05-11T19:09:24.949Z,44.95
2019-05-11T19:11:52.969Z,44.89
2019-05-11T19:14:21.056Z,44.96
2019-05-11T19:16:49.251Z,44.88
2019-05-11T19:19:18.261Z,45.04
2019-05-11T19:21:48.200Z,44.91
2019-05-11T19:24:18.781Z,44.84
2019-05-11T19:26:48.099Z,45.04
2019-05-11T19:29:17.879Z,44.81
2019-05-11T19:31:47.669Z,45.16
2019-05-11T19:34:17.774Z,46.06
2019-05-11T19:36:45.442Z,45.83
2019-05-11T19:39:13.478Z,46.09
2019-05-11T19:41:41.515Z,46.86
2019-05-11T19:44:09.516Z,47.01
2019-05-11T19:46:38.851Z,47.09
2019-05-11T19:49:08.635Z,47.15
2019-05-11T19:51:42.074Z,47.59
2019-05-11T19:54:08.440Z,47.36
2019-05-11T19:56:38.345Z,47.53
2019-05-11T19:59:08.416Z,47.44
2019-05-11T20:01:36.234Z,47.15
2019-05-11T20:04:04.295Z,47.10
2019-05-11T20:06:32.368Z,47.03
2019-05-11T20:09:00.903Z,47.60
2019-05-11T20:11:28.963Z,47.58
2019-05-11T20:13:58.965Z,47.49
2019-05-11T20:16:26.773Z,48.17
2019-05-11T20:18:54.765Z,47.82
2019-05-11T20:21:23.227Z,48.08
2019-05-11T20:23:52.280Z,48.03
2019-05-11T20:26:20.303Z,48.01
2019-05-11T20:28:48.379Z,47.73
2019-05-11T20:31:18.357Z,47.84
2019-05-11T20:33:47.703Z,47.29
2019-05-11T20:36:17.834Z,48.07
2019-05-11T20:38:47.656Z,47.40
2019-05-11T20:41:15.980Z,47.63
2019-05-11T20:43:44.038Z,47.55
2019-05-11T20:46:12.099Z,47.55
2019-05-11T20:48:40.104Z,47.51
2019-05-11T20:51:08.283Z,47.68
2019-05-11T20:53:38.580Z,48.18
2019-05-11T20:56:08.405Z,47.54
2019-05-11T20:58:54.656Z,47.59
2019-05-11T21:01:22.664Z,48.37
2019-05-11T21:03:50.675Z,47.75
2019-05-11T21:06:18.814Z,48.22
2019-05-11T21:08:48.200Z,47.83
2019-05-11T21:11:18.058Z,47.77
2019-05-11T21:13:48.082Z,48.06
2019-05-11T21:16:16.039Z,47.97
2019-05-11T21:18:44.033Z,47.74
2019-05-11T21:21:12.121Z,48.00
2019-05-11T21:23:40.657Z,48.36
2019-05-11T21:26:10.010Z,47.74
2019-05-11T21:28:38.336Z,46.77
2019-05-11T21:31:08.024Z,46.17
2019-05-11T21:33:37.837Z,45.91
2019-05-11T21:36:08.644Z,45.46
2019-05-11T21:38:35.794Z,45.26
2019-05-11T21:41:03.926Z,45.37
2019-05-11T21:43:31.956Z,45.33
2019-05-11T21:46:01.323Z,45.09
2019-05-11T21:48:29.637Z,45.29
2019-05-11T21:50:59.898Z,45.07
2019-05-11T21:53:28.744Z,45.17
2019-05-11T21:55:58.509Z,46.21
2019-05-11T21:58:28.543Z,46.33
2019-05-11T22:00:56.525Z,46.24
2019-05-11T22:03:24.568Z,46.11
2019-05-11T22:05:52.665Z,46.09
2019-05-11T22:08:20.668Z,46.09
2019-05-11T22:10:48.674Z,45.87
2019-05-11T22:13:17.742Z,45.52
2019-05-11T22:15:48.552Z,45.50
2019-05-11T22:18:28.259Z,45.57
2019-05-11T22:20:48.490Z,45.50
2019-05-11T22:23:17.633Z,45.44
2019-05-11T22:25:47.540Z,45.46
2019-05-11T22:28:17.501Z,45.42
2019-05-11T22:30:45.441Z,45.09
2019-05-11T22:33:13.499Z,45.01
2019-05-11T22:35:41.530Z,45.00
2019-05-11T22:38:09.525Z,44.98
2019-05-11T22:40:38.317Z,44.88
2019-05-11T22:43:09.158Z,44.78
2019-05-11T22:45:38.319Z,44.84
2019-05-11T22:48:07.983Z,44.73
2019-05-11T22:50:37.979Z,44.60
2019-05-11T22:53:05.630Z,44.66
2019-05-11T22:55:33.669Z,44.40
2019-05-11T22:58:01.874Z,44.59
2019-05-11T23:00:29.984Z,44.57
2019-05-11T23:02:58.745Z,44.67
2019-05-11T23:05:27.685Z,44.74
2019-05-11T23:07:58.657Z,44.62
2019-05-11T23:10:28.146Z,44.55
2019-05-11T23:12:56.268Z,44.58
2019-05-11T23:15:24.329Z,44.61
2019-05-11T23:17:52.343Z,44.48
2019-05-11T23:20:20.339Z,44.54
2019-05-11T23:22:56.821Z,44.27
2019-05-11T23:25:18.569Z,44.35
2019-05-11T23:27:48.453Z,44.41
2019-05-11T23:30:19.340Z,44.49
2019-05-11T23:32:47.974Z,44.54
2019-05-11T23:35:18.443Z,44.44
2019-05-11T23:37:45.595Z,44.50
2019-05-11T23:40:13.624Z,44.29
2019-05-11T23:42:41.664Z,44.19
2019-05-11T23:45:09.702Z,44.17
2019-05-11T23:47:39.244Z,44.13
2019-05-11T23:50:08.169Z,44.07
2019-05-11T23:52:38.088Z,44.16
2019-05-11T23:55:08.168Z,44.36
2019-05-11T23:57:37.480Z,44.27
